Granite, Iowa
Current Conditions -  °F | °C
As of 6:15 AM on Monday 24 Nov 2014 (Local Time) from KLYV Reporting Station
Overcast Overcast  
Wind Chill:   Ceiling: 2000
Heat Index: 21°   Visibility: 10mi
Dew Point: 14°   Wind: 21mph
Humidity: 74%   Direction: 330°NNW
Pressure: 29.55"   Gusts: 25mph
Location:  43.4284°N, 96.4487°W
Report Text: KLYV 241215Z AUTO 33018G22KT 10SM BKN020 OVC028 M06/M10 A2955 RMK AO2
Loading
Personal Weather Stations






























Interactive Weather Map New forecast layout! Learn more

10-Day Weather Forecast

Advertisements
Track Severe Weather on mobile